Airport View

Enter AWOS ICAO identifier for current METAR.

ex. KFNL

KBFI 191153Z AUTO 00000KT 10SM FEW070 BKN090 OVC110 14/09 A2970 RMK AO2 SLP057 T01390089 10172 20139 53008

19 May 2019 12:53

Phone: 206-763-6904

Other Area AWOS: KRNT - KSEA - KPWT - KTIW

TAF KBFI 191120Z 1912/2012 VRB03KT P6SM BKN080 OVC100 FM191300 17004KT P6SM VCSH OVC060 FM191800 27006KT P6SM BKN060 FM200400 20005KT P6SM OVC050